Lehigh Acres, FL (33973)

10:30 PM EDT on August 28, 2016 (GMT -0400)
APRSWXNET | | Change Station

Elev 32 ft 26.60 °N, 81.70 °W | Updated 27 minutes ago

Clear
Clear
81 °F
Feels Like 88 °F
N
4
Wind Variable Wind from East
Gusts 10.0 mph

Today
High -- | Low -- °F
--% Chance of Precip.
Yesterday
High -- | Low -- °F
Precip. -- in
Pressure 29.91 in
Visibility 10.0 miles
Clouds Clear
Heat Index 88 °F
Dew Point 77 °F
Humidity 87%
Rainfall in
Snow Depth Not available.
7:04 AM 7:50 PM
Waning Crescent, 11% visible
METAR KRSW 290153Z 08007KT 10SM CLR 27/23 A2991 RMK AO2 SLP127 T02720233
Pressure 29.91 in
Visibility 10.0 miles
Clouds Clear
Heat Index 88 °F
Dew Point 77 °F
Humidity 87%
Rainfall in
Snow Depth Not available.
7:04 AM 7:50 PM
Waning Crescent, 11% visible
METAR KRSW 290153Z 08007KT 10SM CLR 27/23 A2991 RMK AO2 SLP127 T02720233
The area of storminess, previously known as Invest 99-L that we were monitoring for days, finally developed into Tropical Depression Nine near the Florida Keys on Sunday evening.

There remains a large degree of uncertainty around how much this system will strengthen once it gets into the southeast Gulf of Mexico. For now, the clockwise flow around upper-level high pressure over the eastern United States will steer Tropical Depression Nine west-northwest toward the Gulf. That high will weaken by Tuesday, allowing this system to move more north, and then eventually northeast the next several days on a path toward the Florida Gulf Coast.

10-Day Weather Forecast

Almanac

Astronomy

Aug. 28, 2016 Rise Set
Actual Time
Civil Twilight
Nautical Twilight
Astronomical Twilight
Moon
Length of Visible Light
Length of Day
Tomorrow will be .
, % of the Moon is Illuminated

Today's Extremes

State Highs State Lows

Community

WunderPhotos

Upload Photos

1,935,773 photos uploaded!

WunderBlog® & News

Nearby

Air Quality

  Air Quality AQ Index Pollutant
Not available.

Snow Depth

Station Depth Elevation

Earthquake Activity

City Distance Mag. Time & Date
Minimum magnitude displayed is 2.5.

Coastal Water Temperatures

Place Temperature

Stations

Nearby Weather Stations

Station Location Temp. Windchill Dew Point Humidity Wind Precip. Elev Updated Type
                   

Watches & Warnings

There are currently no watches in effect.